sensor_id;sensor_type;location;lat;lon;timestamp;temperature;humidity
25550;DHT22;13444;50.562;7.262;2022-08-21T00:01:25;16.50;99.90
25550;DHT22;13444;50.562;7.262;2022-08-21T00:03:51;16.40;99.90
25550;DHT22;13444;50.562;7.262;2022-08-21T00:06:17;16.40;99.90
25550;DHT22;13444;50.562;7.262;2022-08-21T00:08:43;16.40;99.90
25550;DHT22;13444;50.562;7.262;2022-08-21T00:11:09;16.30;99.90
25550;DHT22;13444;50.562;7.262;2022-08-21T00:13:35;16.30;99.90
25550;DHT22;13444;50.562;7.262;2022-08-21T00:16:01;16.20;99.90
25550;DHT22;13444;50.562;7.262;2022-08-21T00:18:27;16.20;99.90
25550;DHT22;13444;50.562;7.262;2022-08-21T00:20:53;16.20;99.90
25550;DHT22;13444;50.562;7.262;2022-08-21T00:23:18;16.10;99.90
25550;DHT22;13444;50.562;7.262;2022-08-21T00:25:45;16.10;99.90
25550;DHT22;13444;50.562;7.262;2022-08-21T00:28:12;16.10;99.90
25550;DHT22;13444;50.562;7.262;2022-08-21T00:30:39;16.10;99.90
25550;DHT22;13444;50.562;7.262;2022-08-21T00:33:06;16.00;99.90
25550;DHT22;13444;50.562;7.262;2022-08-21T00:35:35;16.00;99.90
25550;DHT22;13444;50.562;7.262;2022-08-21T00:38:03;16.00;99.90
25550;DHT22;13444;50.562;7.262;2022-08-21T00:43:08;16.10;99.90
25550;DHT22;13444;50.562;7.262;2022-08-21T00:45:34;16.00;99.90
25550;DHT22;13444;50.562;7.262;2022-08-21T00:48:00;16.10;99.90
25550;DHT22;13444;50.562;7.262;2022-08-21T00:50:30;16.00;99.90
25550;DHT22;13444;50.562;7.262;2022-08-21T00:52:58;16.00;99.90
25550;DHT22;13444;50.562;7.262;2022-08-21T00:55:25;16.00;99.90
25550;DHT22;13444;50.562;7.262;2022-08-21T00:57:54;15.90;99.90
25550;DHT22;13444;50.562;7.262;2022-08-21T01:00:30;15.90;99.90
25550;DHT22;13444;50.562;7.262;2022-08-21T01:03:01;15.80;99.90
25550;DHT22;13444;50.562;7.262;2022-08-21T01:05:30;15.80;99.90
25550;DHT22;13444;50.562;7.262;2022-08-21T01:07:55;15.70;99.90
25550;DHT22;13444;50.562;7.262;2022-08-21T01:10:22;15.70;99.90
25550;DHT22;13444;50.562;7.262;2022-08-21T01:12:52;15.60;99.90
25550;DHT22;13444;50.562;7.262;2022-08-21T01:15:23;15.60;99.90
25550;DHT22;13444;50.562;7.262;2022-08-21T01:17:50;15.60;99.90
25550;DHT22;13444;50.562;7.262;2022-08-21T01:20:16;15.50;99.90
25550;DHT22;13444;50.562;7.262;2022-08-21T01:22:42;15.50;99.90
25550;DHT22;13444;50.562;7.262;2022-08-21T01:25:09;15.50;99.90
25550;DHT22;13444;50.562;7.262;2022-08-21T01:27:35;15.50;99.90
25550;DHT22;13444;50.562;7.262;2022-08-21T01:30:17;15.50;99.90
25550;DHT22;13444;50.562;7.262;2022-08-21T01:32:44;15.50;99.90
25550;DHT22;13444;50.562;7.262;2022-08-21T01:35:11;15.50;99.90
25550;DHT22;13444;50.562;7.262;2022-08-21T01:37:37;15.50;99.90
25550;DHT22;13444;50.562;7.262;2022-08-21T01:40:04;15.50;99.90
25550;DHT22;13444;50.562;7.262;2022-08-21T01:42:30;15.50;99.90
25550;DHT22;13444;50.562;7.262;2022-08-21T01:44:56;15.40;99.90
25550;DHT22;13444;50.562;7.262;2022-08-21T01:47:22;15.30;99.90
25550;DHT22;13444;50.562;7.262;2022-08-21T01:49:48;15.30;99.90
25550;DHT22;13444;50.562;7.262;2022-08-21T01:52:13;15.20;99.90
25550;DHT22;13444;50.562;7.262;2022-08-21T01:54:39;15.30;99.90
25550;DHT22;13444;50.562;7.262;2022-08-21T01:57:05;15.20;99.90
25550;DHT22;13444;50.562;7.262;2022-08-21T01:59:31;15.20;99.90
25550;DHT22;13444;50.562;7.262;2022-08-21T02:01:57;15.20;99.90
25550;DHT22;13444;50.562;7.262;2022-08-21T02:04:23;15.20;99.90
25550;DHT22;13444;50.562;7.262;2022-08-21T02:06:49;15.10;99.90
25550;DHT22;13444;50.562;7.262;2022-08-21T02:09:14;15.10;99.90
25550;DHT22;13444;50.562;7.262;2022-08-21T02:11:41;15.00;99.90
25550;DHT22;13444;50.562;7.262;2022-08-21T02:14:11;15.00;99.90
25550;DHT22;13444;50.562;7.262;2022-08-21T02:16:39;15.00;99.90
25550;DHT22;13444;50.562;7.262;2022-08-21T02:19:05;15.00;99.90
25550;DHT22;13444;50.562;7.262;2022-08-21T02:21:30;14.90;99.90
25550;DHT22;13444;50.562;7.262;2022-08-21T02:23:56;14.90;99.90
25550;DHT22;13444;50.562;7.262;2022-08-21T02:26:22;14.90;99.90
25550;DHT22;13444;50.562;7.262;2022-08-21T02:28:47;14.80;99.90
25550;DHT22;13444;50.562;7.262;2022-08-21T02:31:13;14.70;99.90
25550;DHT22;13444;50.562;7.262;2022-08-21T02:33:39;14.70;99.90
25550;DHT22;13444;50.562;7.262;2022-08-21T02:36:05;14.60;99.90
25550;DHT22;13444;50.562;7.262;2022-08-21T02:38:33;14.60;99.90
25550;DHT22;13444;50.562;7.262;2022-08-21T02:41:00;14.60;99.90
25550;DHT22;13444;50.562;7.262;2022-08-21T02:43:27;14.60;99.90
25550;DHT22;13444;50.562;7.262;2022-08-21T02:45:55;14.60;99.90
25550;DHT22;13444;50.562;7.262;2022-08-21T02:48:24;14.60;99.90
25550;DHT22;13444;50.562;7.262;2022-08-21T02:50:56;14.50;99.90
25550;DHT22;13444;50.562;7.262;2022-08-21T02:53:22;14.50;99.90
25550;DHT22;13444;50.562;7.262;2022-08-21T02:55:50;14.50;99.90
25550;DHT22;13444;50.562;7.262;2022-08-21T02:58:18;14.50;99.90
25550;DHT22;13444;50.562;7.262;2022-08-21T03:00:45;14.50;99.90
25550;DHT22;13444;50.562;7.262;2022-08-21T03:03:11;14.40;99.90
25550;DHT22;13444;50.562;7.262;2022-08-21T03:05:38;14.40;99.90
25550;DHT22;13444;50.562;7.262;2022-08-21T03:08:07;14.40;99.90
25550;DHT22;13444;50.562;7.262;2022-08-21T03:10:40;14.30;99.90
25550;DHT22;13444;50.562;7.262;2022-08-21T03:13:07;14.30;99.90
25550;DHT22;13444;50.562;7.262;2022-08-21T03:15:32;14.30;99.90
25550;DHT22;13444;50.562;7.262;2022-08-21T03:17:58;14.30;99.90
25550;DHT22;13444;50.562;7.262;2022-08-21T03:20:26;14.30;99.90
25550;DHT22;13444;50.562;7.262;2022-08-21T03:22:53;14.30;99.90
25550;DHT22;13444;50.562;7.262;2022-08-21T03:25:21;14.30;99.90
25550;DHT22;13444;50.562;7.262;2022-08-21T03:27:47;14.30;99.90
25550;DHT22;13444;50.562;7.262;2022-08-21T03:30:17;14.30;99.90
25550;DHT22;13444;50.562;7.262;2022-08-21T03:32:42;14.30;99.90
25550;DHT22;13444;50.562;7.262;2022-08-21T03:35:08;14.20;99.90
25550;DHT22;13444;50.562;7.262;2022-08-21T03:37:35;14.20;99.90
25550;DHT22;13444;50.562;7.262;2022-08-21T03:40:02;14.20;99.90
25550;DHT22;13444;50.562;7.262;2022-08-21T03:42:28;14.20;99.90
25550;DHT22;13444;50.562;7.262;2022-08-21T03:44:53;14.20;99.90
25550;DHT22;13444;50.562;7.262;2022-08-21T03:47:19;14.20;99.90
25550;DHT22;13444;50.562;7.262;2022-08-21T03:49:44;14.20;99.90
25550;DHT22;13444;50.562;7.262;2022-08-21T03:52:10;14.10;99.90
25550;DHT22;13444;50.562;7.262;2022-08-21T03:54:35;14.10;99.90
25550;DHT22;13444;50.562;7.262;2022-08-21T03:57:01;14.10;99.90
25550;DHT22;13444;50.562;7.262;2022-08-21T03:59:27;14.10;99.90
25550;DHT22;13444;50.562;7.262;2022-08-21T04:01:55;14.10;99.90
25550;DHT22;13444;50.562;7.262;2022-08-21T04:04:21;14.00;99.90
25550;DHT22;13444;50.562;7.262;2022-08-21T04:06:46;14.00;99.90
25550;DHT22;13444;50.562;7.262;2022-08-21T04:09:12;13.90;99.90
25550;DHT22;13444;50.562;7.262;2022-08-21T04:11:38;13.90;99.90
25550;DHT22;13444;50.562;7.262;2022-08-21T04:14:03;13.90;99.90
25550;DHT22;13444;50.562;7.262;2022-08-21T04:16:30;13.80;99.90
25550;DHT22;13444;50.562;7.262;2022-08-21T04:18:56;13.80;99.90
25550;DHT22;13444;50.562;7.262;2022-08-21T04:21:22;13.80;99.90
25550;DHT22;13444;50.562;7.262;2022-08-21T04:23:48;13.80;99.90
25550;DHT22;13444;50.562;7.262;2022-08-21T04:26:14;13.70;99.90
25550;DHT22;13444;50.562;7.262;2022-08-21T04:28:39;13.70;99.90
25550;DHT22;13444;50.562;7.262;2022-08-21T04:31:05;13.60;99.90
25550;DHT22;13444;50.562;7.262;2022-08-21T04:33:31;13.60;99.90
25550;DHT22;13444;50.562;7.262;2022-08-21T04:35:56;13.60;99.90
25550;DHT22;13444;50.562;7.262;2022-08-21T04:38:22;13.60;99.90
25550;DHT22;13444;50.562;7.262;2022-08-21T04:40:47;13.60;99.90
25550;DHT22;13444;50.562;7.262;2022-08-21T04:43:14;13.60;99.90
25550;DHT22;13444;50.562;7.262;2022-08-21T04:45:45;13.60;99.90
25550;DHT22;13444;50.562;7.262;2022-08-21T04:48:14;13.50;99.90
25550;DHT22;13444;50.562;7.262;2022-08-21T04:50:59;13.50;99.90
25550;DHT22;13444;50.562;7.262;2022-08-21T04:53:30;13.60;99.90
25550;DHT22;13444;50.562;7.262;2022-08-21T04:55:58;13.60;99.90
25550;DHT22;13444;50.562;7.262;2022-08-21T04:58:26;13.50;99.90
25550;DHT22;13444;50.562;7.262;2022-08-21T05:00:54;13.50;99.90
25550;DHT22;13444;50.562;7.262;2022-08-21T05:03:21;13.50;99.90
25550;DHT22;13444;50.562;7.262;2022-08-21T05:05:47;13.50;99.90
25550;DHT22;13444;50.562;7.262;2022-08-21T05:08:16;13.50;99.90
25550;DHT22;13444;50.562;7.262;2022-08-21T05:10:43;13.50;99.90
25550;DHT22;13444;50.562;7.262;2022-08-21T05:13:10;13.60;99.90
25550;DHT22;13444;50.562;7.262;2022-08-21T05:15:36;13.60;99.90
25550;DHT22;13444;50.562;7.262;2022-08-21T05:18:02;13.70;99.90
25550;DHT22;13444;50.562;7.262;2022-08-21T05:20:28;13.70;99.90
25550;DHT22;13444;50.562;7.262;2022-08-21T05:22:54;13.70;99.90
25550;DHT22;13444;50.562;7.262;2022-08-21T05:25:20;13.70;99.90
25550;DHT22;13444;50.562;7.262;2022-08-21T05:27:45;13.70;99.90
25550;DHT22;13444;50.562;7.262;2022-08-21T05:30:11;13.70;99.90
25550;DHT22;13444;50.562;7.262;2022-08-21T05:32:37;13.80;99.90
25550;DHT22;13444;50.562;7.262;2022-08-21T05:35:05;13.90;99.90
25550;DHT22;13444;50.562;7.262;2022-08-21T05:37:31;13.90;99.90
25550;DHT22;13444;50.562;7.262;2022-08-21T05:39:57;14.00;99.90
25550;DHT22;13444;50.562;7.262;2022-08-21T05:42:22;14.00;99.90
25550;DHT22;13444;50.562;7.262;2022-08-21T05:44:48;14.10;99.90
25550;DHT22;13444;50.562;7.262;2022-08-21T05:47:14;14.20;99.90
25550;DHT22;13444;50.562;7.262;2022-08-21T05:49:40;14.20;99.90
25550;DHT22;13444;50.562;7.262;2022-08-21T05:52:05;14.30;99.90
25550;DHT22;13444;50.562;7.262;2022-08-21T05:54:31;14.40;99.90
25550;DHT22;13444;50.562;7.262;2022-08-21T05:56:57;14.50;99.90
25550;DHT22;13444;50.562;7.262;2022-08-21T05:59:23;14.60;99.90
25550;DHT22;13444;50.562;7.262;2022-08-21T06:01:49;14.70;99.90
25550;DHT22;13444;50.562;7.262;2022-08-21T06:04:14;14.70;99.90
25550;DHT22;13444;50.562;7.262;2022-08-21T06:06:40;14.80;99.90
25550;DHT22;13444;50.562;7.262;2022-08-21T06:09:06;14.80;99.90
25550;DHT22;13444;50.562;7.262;2022-08-21T06:11:32;14.90;99.90
25550;DHT22;13444;50.562;7.262;2022-08-21T06:13:58;15.00;99.90
25550;DHT22;13444;50.562;7.262;2022-08-21T06:16:25;15.10;99.90
25550;DHT22;13444;50.562;7.262;2022-08-21T06:18:51;15.20;99.90
25550;DHT22;13444;50.562;7.262;2022-08-21T06:21:17;15.30;99.90
25550;DHT22;13444;50.562;7.262;2022-08-21T06:23:43;15.40;99.90
25550;DHT22;13444;50.562;7.262;2022-08-21T06:26:10;15.40;99.90
25550;DHT22;13444;50.562;7.262;2022-08-21T06:28:37;15.50;99.90
25550;DHT22;13444;50.562;7.262;2022-08-21T06:31:20;15.60;99.90
25550;DHT22;13444;50.562;7.262;2022-08-21T06:33:45;15.70;99.90
25550;DHT22;13444;50.562;7.262;2022-08-21T06:36:11;15.80;99.90
25550;DHT22;13444;50.562;7.262;2022-08-21T06:38:38;15.90;99.90
25550;DHT22;13444;50.562;7.262;2022-08-21T06:41:04;16.00;99.90
25550;DHT22;13444;50.562;7.262;2022-08-21T06:43:30;16.10;99.90
25550;DHT22;13444;50.562;7.262;2022-08-21T06:45:56;16.20;99.90
25550;DHT22;13444;50.562;7.262;2022-08-21T06:48:21;16.30;99.90
25550;DHT22;13444;50.562;7.262;2022-08-21T06:50:47;16.50;99.90
25550;DHT22;13444;50.562;7.262;2022-08-21T06:53:16;16.50;99.90
25550;DHT22;13444;50.562;7.262;2022-08-21T06:55:42;16.60;99.90
25550;DHT22;13444;50.562;7.262;2022-08-21T06:58:08;16.80;99.90
25550;DHT22;13444;50.562;7.262;2022-08-21T07:00:35;16.90;99.90
25550;DHT22;13444;50.562;7.262;2022-08-21T07:03:03;17.10;99.90
25550;DHT22;13444;50.562;7.262;2022-08-21T07:05:29;17.30;99.90
25550;DHT22;13444;50.562;7.262;2022-08-21T07:07:56;17.50;99.90
25550;DHT22;13444;50.562;7.262;2022-08-21T07:10:23;17.60;99.90
25550;DHT22;13444;50.562;7.262;2022-08-21T07:12:50;17.80;99.90
25550;DHT22;13444;50.562;7.262;2022-08-21T07:15:16;17.90;99.90
25550;DHT22;13444;50.562;7.262;2022-08-21T07:17:41;18.00;99.90
25550;DHT22;13444;50.562;7.262;2022-08-21T07:20:08;18.10;99.90
25550;DHT22;13444;50.562;7.262;2022-08-21T07:22:35;18.30;99.90
25550;DHT22;13444;50.562;7.262;2022-08-21T07:25:02;18.50;99.90
25550;DHT22;13444;50.562;7.262;2022-08-21T07:27:28;18.60;99.90
25550;DHT22;13444;50.562;7.262;2022-08-21T07:29:53;18.80;99.90
25550;DHT22;13444;50.562;7.262;2022-08-21T07:32:19;19.00;99.90
25550;DHT22;13444;50.562;7.262;2022-08-21T07:34:44;19.20;99.90
25550;DHT22;13444;50.562;7.262;2022-08-21T07:37:10;19.40;99.90
25550;DHT22;13444;50.562;7.262;2022-08-21T07:39:36;19.60;99.90
25550;DHT22;13444;50.562;7.262;2022-08-21T07:42:01;19.90;99.90
25550;DHT22;13444;50.562;7.262;2022-08-21T07:44:28;20.20;99.90
25550;DHT22;13444;50.562;7.262;2022-08-21T07:46:54;20.40;99.90
25550;DHT22;13444;50.562;7.262;2022-08-21T07:49:19;20.70;99.90
25550;DHT22;13444;50.562;7.262;2022-08-21T07:51:45;20.90;99.90
25550;DHT22;13444;50.562;7.262;2022-08-21T07:54:11;21.10;99.90
25550;DHT22;13444;50.562;7.262;2022-08-21T07:56:36;21.40;99.90
25550;DHT22;13444;50.562;7.262;2022-08-21T07:59:02;21.80;99.90
25550;DHT22;13444;50.562;7.262;2022-08-21T08:01:28;22.30;99.90
25550;DHT22;13444;50.562;7.262;2022-08-21T08:03:54;22.50;99.90
25550;DHT22;13444;50.562;7.262;2022-08-21T08:06:20;22.80;99.90
25550;DHT22;13444;50.562;7.262;2022-08-21T08:08:46;23.10;99.90
25550;DHT22;13444;50.562;7.262;2022-08-21T08:11:12;23.40;99.90
25550;DHT22;13444;50.562;7.262;2022-08-21T08:13:47;23.50;99.90
25550;DHT22;13444;50.562;7.262;2022-08-21T08:16:13;23.70;99.90
25550;DHT22;13444;50.562;7.262;2022-08-21T08:18:39;24.00;99.90
25550;DHT22;13444;50.562;7.262;2022-08-21T08:21:05;24.30;99.90
25550;DHT22;13444;50.562;7.262;2022-08-21T08:23:31;24.70;99.90
25550;DHT22;13444;50.562;7.262;2022-08-21T08:25:57;24.90;99.90
25550;DHT22;13444;50.562;7.262;2022-08-21T08:28:23;25.20;99.90
25550;DHT22;13444;50.562;7.262;2022-08-21T08:30:49;25.40;99.90
25550;DHT22;13444;50.562;7.262;2022-08-21T08:33:15;25.30;99.90
25550;DHT22;13444;50.562;7.262;2022-08-21T08:35:45;25.50;99.90
25550;DHT22;13444;50.562;7.262;2022-08-21T08:38:11;25.80;99.90
25550;DHT22;13444;50.562;7.262;2022-08-21T08:40:47;26.00;99.90
25550;DHT22;13444;50.562;7.262;2022-08-21T08:43:17;26.10;99.90
25550;DHT22;13444;50.562;7.262;2022-08-21T08:45:47;26.40;99.90
25550;DHT22;13444;50.562;7.262;2022-08-21T08:48:16;26.70;99.90
25550;DHT22;13444;50.562;7.262;2022-08-21T08:50:54;27.10;99.90
25550;DHT22;13444;50.562;7.262;2022-08-21T08:53:24;27.20;99.90
25550;DHT22;13444;50.562;7.262;2022-08-21T08:55:51;27.20;99.90
25550;DHT22;13444;50.562;7.262;2022-08-21T08:58:30;27.30;99.90
25550;DHT22;13444;50.562;7.262;2022-08-21T09:00:56;27.50;99.90
25550;DHT22;13444;50.562;7.262;2022-08-21T09:03:23;27.50;99.90
25550;DHT22;13444;50.562;7.262;2022-08-21T09:06:53;27.70;99.90
25550;DHT22;13444;50.562;7.262;2022-08-21T09:09:01;27.90;99.90
25550;DHT22;13444;50.562;7.262;2022-08-21T09:16:56;28.80;99.90
25550;DHT22;13444;50.562;7.262;2022-08-21T09:19:58;28.90;99.90
25550;DHT22;13444;50.562;7.262;2022-08-21T09:27:38;28.80;99.90
25550;DHT22;13444;50.562;7.262;2022-08-21T09:30:07;28.50;99.90
25550;DHT22;13444;50.562;7.262;2022-08-21T09:32:35;28.20;99.90
25550;DHT22;13444;50.562;7.262;2022-08-21T09:35:18;28.20;99.90
25550;DHT22;13444;50.562;7.262;2022-08-21T09:38:05;28.50;99.90
25550;DHT22;13444;50.562;7.262;2022-08-21T09:45:35;28.90;99.90
25550;DHT22;13444;50.562;7.262;2022-08-21T09:48:14;28.90;99.80
25550;DHT22;13444;50.562;7.262;2022-08-21T09:50:40;28.80;99.80
25550;DHT22;13444;50.562;7.262;2022-08-21T09:53:16;28.70;99.90
25550;DHT22;13444;50.562;7.262;2022-08-21T09:55:53;28.70;99.90
25550;DHT22;13444;50.562;7.262;2022-08-21T09:58:40;28.70;99.60
25550;DHT22;13444;50.562;7.262;2022-08-21T10:01:11;28.80;99.90
25550;DHT22;13444;50.562;7.262;2022-08-21T10:03:37;29.00;99.90
25550;DHT22;13444;50.562;7.262;2022-08-21T10:06:06;29.20;98.20
25550;DHT22;13444;50.562;7.262;2022-08-21T10:08:35;29.20;99.60
25550;DHT22;13444;50.562;7.262;2022-08-21T10:11:13;29.50;98.70
25550;DHT22;13444;50.562;7.262;2022-08-21T10:19:36;29.70;97.20
25550;DHT22;13444;50.562;7.262;2022-08-21T10:22:26;29.80;97.60
25550;DHT22;13444;50.562;7.262;2022-08-21T10:25:17;30.20;97.80
25550;DHT22;13444;50.562;7.262;2022-08-21T10:28:10;30.80;96.70
25550;DHT22;13444;50.562;7.262;2022-08-21T10:30:52;30.70;94.40
25550;DHT22;13444;50.562;7.262;2022-08-21T10:36:09;30.90;95.30
25550;DHT22;13444;50.562;7.262;2022-08-21T10:44:37;31.60;93.50
25550;DHT22;13444;50.562;7.262;2022-08-21T10:47:18;32.20;93.80
25550;DHT22;13444;50.562;7.262;2022-08-21T10:50:17;32.80;92.20
25550;DHT22;13444;50.562;7.262;2022-08-21T10:55:57;33.40;90.10
25550;DHT22;13444;50.562;7.262;2022-08-21T10:58:29;33.30;89.60
25550;DHT22;13444;50.562;7.262;2022-08-21T11:01:00;33.60;90.10
25550;DHT22;13444;50.562;7.262;2022-08-21T11:03:59;34.00;90.00
25550;DHT22;13444;50.562;7.262;2022-08-21T11:06:27;34.20;87.10
25550;DHT22;13444;50.562;7.262;2022-08-21T11:09:11;34.30;83.20
25550;DHT22;13444;50.562;7.262;2022-08-21T11:14:56;33.90;83.10
25550;DHT22;13444;50.562;7.262;2022-08-21T11:17:32;33.90;85.00
25550;DHT22;13444;50.562;7.262;2022-08-21T11:20:15;33.10;81.90
25550;DHT22;13444;50.562;7.262;2022-08-21T11:23:01;32.60;84.30
25550;DHT22;13444;50.562;7.262;2022-08-21T11:25:37;32.80;85.60
25550;DHT22;13444;50.562;7.262;2022-08-21T11:28:06;32.70;83.80
25550;DHT22;13444;50.562;7.262;2022-08-21T11:30:48;32.60;83.50
25550;DHT22;13444;50.562;7.262;2022-08-21T11:33:42;32.50;83.60
25550;DHT22;13444;50.562;7.262;2022-08-21T11:38:41;32.30;84.10
25550;DHT22;13444;50.562;7.262;2022-08-21T11:41:40;32.10;83.10
25550;DHT22;13444;50.562;7.262;2022-08-21T11:44:29;31.80;84.60
25550;DHT22;13444;50.562;7.262;2022-08-21T11:47:12;32.00;84.80
25550;DHT22;13444;50.562;7.262;2022-08-21T11:50:13;32.00;83.40
25550;DHT22;13444;50.562;7.262;2022-08-21T11:52:44;32.20;83.10
25550;DHT22;13444;50.562;7.262;2022-08-21T11:55:22;32.20;81.90
25550;DHT22;13444;50.562;7.262;2022-08-21T11:58:07;32.00;83.20
25550;DHT22;13444;50.562;7.262;2022-08-21T12:00:42;32.10;82.30
25550;DHT22;13444;50.562;7.262;2022-08-21T12:03:17;32.00;81.80
25550;DHT22;13444;50.562;7.262;2022-08-21T12:05:54;32.20;83.20
25550;DHT22;13444;50.562;7.262;2022-08-21T12:08:40;32.30;82.40
25550;DHT22;13444;50.562;7.262;2022-08-21T12:11:23;32.50;80.80
25550;DHT22;13444;50.562;7.262;2022-08-21T12:19:11;32.40;81.50
25550;DHT22;13444;50.562;7.262;2022-08-21T12:24:48;32.30;79.80
25550;DHT22;13444;50.562;7.262;2022-08-21T12:27:29;32.20;80.30
25550;DHT22;13444;50.562;7.262;2022-08-21T12:30:00;32.30;82.40
25550;DHT22;13444;50.562;7.262;2022-08-21T12:35:14;33.20;78.50
25550;DHT22;13444;50.562;7.262;2022-08-21T12:40:31;32.60;77.50
25550;DHT22;13444;50.562;7.262;2022-08-21T12:42:59;32.60;79.50
25550;DHT22;13444;50.562;7.262;2022-08-21T12:45:33;32.50;77.60
25550;DHT22;13444;50.562;7.262;2022-08-21T12:48:14;32.10;78.10
25550;DHT22;13444;50.562;7.262;2022-08-21T12:50:52;31.80;80.10
25550;DHT22;13444;50.562;7.262;2022-08-21T12:53:37;32.00;80.20
25550;DHT22;13444;50.562;7.262;2022-08-21T12:56:11;31.80;77.80
25550;DHT22;13444;50.562;7.262;2022-08-21T12:58:40;31.80;80.30
25550;DHT22;13444;50.562;7.262;2022-08-21T13:01:12;32.00;78.50
25550;DHT22;13444;50.562;7.262;2022-08-21T13:03:42;31.60;78.40
25550;DHT22;13444;50.562;7.262;2022-08-21T13:06:15;31.30;79.20
25550;DHT22;13444;50.562;7.262;2022-08-21T13:08:43;31.10;79.00
25550;DHT22;13444;50.562;7.262;2022-08-21T13:11:09;31.20;81.50
25550;DHT22;13444;50.562;7.262;2022-08-21T13:13:35;31.20;80.40
25550;DHT22;13444;50.562;7.262;2022-08-21T13:16:06;31.40;80.00
25550;DHT22;13444;50.562;7.262;2022-08-21T13:18:35;31.50;81.20
25550;DHT22;13444;50.562;7.262;2022-08-21T13:21:13;31.40;80.70
25550;DHT22;13444;50.562;7.262;2022-08-21T13:23:39;31.40;81.50
25550;DHT22;13444;50.562;7.262;2022-08-21T13:26:21;31.50;81.60
25550;DHT22;13444;50.562;7.262;2022-08-21T13:28:49;31.40;81.00
25550;DHT22;13444;50.562;7.262;2022-08-21T13:31:24;31.10;79.90
25550;DHT22;13444;50.562;7.262;2022-08-21T13:33:50;30.80;80.50
25550;DHT22;13444;50.562;7.262;2022-08-21T13:36:21;30.90;81.60
25550;DHT22;13444;50.562;7.262;2022-08-21T13:38:51;31.10;81.90
25550;DHT22;13444;50.562;7.262;2022-08-21T13:41:29;31.40;81.70
25550;DHT22;13444;50.562;7.262;2022-08-21T13:43:58;31.60;81.20
25550;DHT22;13444;50.562;7.262;2022-08-21T13:46:27;31.70;79.20
25550;DHT22;13444;50.562;7.262;2022-08-21T13:48:53;31.50;80.10
25550;DHT22;13444;50.562;7.262;2022-08-21T13:51:20;31.30;78.80
25550;DHT22;13444;50.562;7.262;2022-08-21T13:53:49;30.90;79.30
25550;DHT22;13444;50.562;7.262;2022-08-21T13:56:27;30.70;81.00
25550;DHT22;13444;50.562;7.262;2022-08-21T13:58:54;30.60;81.00
25550;DHT22;13444;50.562;7.262;2022-08-21T14:01:36;30.60;80.70
25550;DHT22;13444;50.562;7.262;2022-08-21T14:04:16;30.40;80.30
25550;DHT22;13444;50.562;7.262;2022-08-21T14:06:42;30.10;81.80
25550;DHT22;13444;50.562;7.262;2022-08-21T14:09:19;30.00;83.00
25550;DHT22;13444;50.562;7.262;2022-08-21T14:11:48;30.00;83.70
25550;DHT22;13444;50.562;7.262;2022-08-21T14:14:25;30.00;83.00
25550;DHT22;13444;50.562;7.262;2022-08-21T14:17:04;29.90;83.80
25550;DHT22;13444;50.562;7.262;2022-08-21T14:19:42;29.90;83.80
25550;DHT22;13444;50.562;7.262;2022-08-21T14:22:42;29.90;82.40
25550;DHT22;13444;50.562;7.262;2022-08-21T14:27:44;29.40;83.00
25550;DHT22;13444;50.562;7.262;2022-08-21T14:30:17;29.40;83.50
25550;DHT22;13444;50.562;7.262;2022-08-21T14:32:43;29.30;82.60
25550;DHT22;13444;50.562;7.262;2022-08-21T14:35:10;29.10;82.80
25550;DHT22;13444;50.562;7.262;2022-08-21T14:37:36;28.80;82.80
25550;DHT22;13444;50.562;7.262;2022-08-21T14:40:03;28.80;83.40
25550;DHT22;13444;50.562;7.262;2022-08-21T14:42:29;28.70;83.60
25550;DHT22;13444;50.562;7.262;2022-08-21T14:44:58;28.70;84.40
25550;DHT22;13444;50.562;7.262;2022-08-21T14:47:25;28.70;83.20
25550;DHT22;13444;50.562;7.262;2022-08-21T14:49:50;28.70;83.40
25550;DHT22;13444;50.562;7.262;2022-08-21T14:52:19;28.60;84.60
25550;DHT22;13444;50.562;7.262;2022-08-21T14:54:45;28.60;84.50
25550;DHT22;13444;50.562;7.262;2022-08-21T14:57:11;28.60;84.70
25550;DHT22;13444;50.562;7.262;2022-08-21T14:59:38;28.60;84.30
25550;DHT22;13444;50.562;7.262;2022-08-21T15:02:08;28.50;84.20
25550;DHT22;13444;50.562;7.262;2022-08-21T15:04:34;28.50;84.80
25550;DHT22;13444;50.562;7.262;2022-08-21T15:07:00;28.60;85.40
25550;DHT22;13444;50.562;7.262;2022-08-21T15:09:26;28.50;83.80
25550;DHT22;13444;50.562;7.262;2022-08-21T15:11:53;28.50;85.20
25550;DHT22;13444;50.562;7.262;2022-08-21T15:14:23;28.50;85.70
25550;DHT22;13444;50.562;7.262;2022-08-21T15:16:50;28.50;86.00
25550;DHT22;13444;50.562;7.262;2022-08-21T15:19:16;28.50;85.10
25550;DHT22;13444;50.562;7.262;2022-08-21T15:21:42;28.50;84.90
25550;DHT22;13444;50.562;7.262;2022-08-21T15:24:07;28.40;84.80
25550;DHT22;13444;50.562;7.262;2022-08-21T15:26:34;28.40;85.50
25550;DHT22;13444;50.562;7.262;2022-08-21T15:29:00;28.40;86.90
25550;DHT22;13444;50.562;7.262;2022-08-21T15:31:26;28.40;86.10
25550;DHT22;13444;50.562;7.262;2022-08-21T15:33:52;28.40;86.60
25550;DHT22;13444;50.562;7.262;2022-08-21T15:36:18;28.30;86.90
25550;DHT22;13444;50.562;7.262;2022-08-21T15:38:44;28.30;87.10
25550;DHT22;13444;50.562;7.262;2022-08-21T15:41:10;28.30;87.60
25550;DHT22;13444;50.562;7.262;2022-08-21T15:43:43;28.30;87.00
25550;DHT22;13444;50.562;7.262;2022-08-21T15:46:12;28.20;86.90
25550;DHT22;13444;50.562;7.262;2022-08-21T15:48:39;28.10;87.50
25550;DHT22;13444;50.562;7.262;2022-08-21T15:51:04;28.10;88.10
25550;DHT22;13444;50.562;7.262;2022-08-21T15:53:30;28.10;88.10
25550;DHT22;13444;50.562;7.262;2022-08-21T15:56:01;28.00;88.40
25550;DHT22;13444;50.562;7.262;2022-08-21T15:58:27;28.00;89.00
25550;DHT22;13444;50.562;7.262;2022-08-21T16:00:52;28.00;89.20
25550;DHT22;13444;50.562;7.262;2022-08-21T16:03:18;27.90;89.00
25550;DHT22;13444;50.562;7.262;2022-08-21T16:05:47;27.90;88.90
25550;DHT22;13444;50.562;7.262;2022-08-21T16:08:19;27.90;89.80
25550;DHT22;13444;50.562;7.262;2022-08-21T16:10:45;27.90;90.20
25550;DHT22;13444;50.562;7.262;2022-08-21T16:13:16;27.80;90.30
25550;DHT22;13444;50.562;7.262;2022-08-21T16:15:43;27.70;90.30
25550;DHT22;13444;50.562;7.262;2022-08-21T16:18:09;27.70;90.50
25550;DHT22;13444;50.562;7.262;2022-08-21T16:20:35;27.60;90.80
25550;DHT22;13444;50.562;7.262;2022-08-21T16:23:00;27.60;90.70
25550;DHT22;13444;50.562;7.262;2022-08-21T16:25:26;27.50;91.30
25550;DHT22;13444;50.562;7.262;2022-08-21T16:27:58;27.50;91.30
25550;DHT22;13444;50.562;7.262;2022-08-21T16:30:25;27.50;91.30
25550;DHT22;13444;50.562;7.262;2022-08-21T16:32:51;27.40;91.60
25550;DHT22;13444;50.562;7.262;2022-08-21T16:35:19;27.30;92.10
25550;DHT22;13444;50.562;7.262;2022-08-21T16:37:45;27.30;92.10
25550;DHT22;13444;50.562;7.262;2022-08-21T16:40:11;27.20;92.10
25550;DHT22;13444;50.562;7.262;2022-08-21T16:42:40;27.10;92.10